sensor_id;sensor_type;location;lat;lon;timestamp;temperature;humidity
44559;DHT22;30270;40.238;18.256;2022-10-14T00:01:19;17.90;99.90
44559;DHT22;30270;40.238;18.256;2022-10-14T00:03:47;17.90;99.90
44559;DHT22;30270;40.238;18.256;2022-10-14T00:06:20;18.00;99.90
44559;DHT22;30270;40.238;18.256;2022-10-14T00:08:48;18.00;99.90
44559;DHT22;30270;40.238;18.256;2022-10-14T00:11:26;18.10;99.90
44559;DHT22;30270;40.238;18.256;2022-10-14T00:13:56;18.10;99.90
44559;DHT22;30270;40.238;18.256;2022-10-14T00:16:30;18.10;99.90
44559;DHT22;30270;40.238;18.256;2022-10-14T00:18:59;18.10;99.90
44559;DHT22;30270;40.238;18.256;2022-10-14T00:21:27;18.20;99.90
44559;DHT22;30270;40.238;18.256;2022-10-14T00:23:59;18.20;99.90
44559;DHT22;30270;40.238;18.256;2022-10-14T00:26:31;18.20;99.90
44559;DHT22;30270;40.238;18.256;2022-10-14T00:28:59;18.20;99.90
44559;DHT22;30270;40.238;18.256;2022-10-14T00:31:31;18.30;99.90
44559;DHT22;30270;40.238;18.256;2022-10-14T00:33:59;18.30;99.90
44559;DHT22;30270;40.238;18.256;2022-10-14T00:36:27;18.30;99.90
44559;DHT22;30270;40.238;18.256;2022-10-14T00:38:55;18.30;99.90
44559;DHT22;30270;40.238;18.256;2022-10-14T00:41:30;18.30;99.90
44559;DHT22;30270;40.238;18.256;2022-10-14T00:46:31;18.40;99.90
44559;DHT22;30270;40.238;18.256;2022-10-14T00:49:22;18.40;99.90
44559;DHT22;30270;40.238;18.256;2022-10-14T00:52:04;18.40;99.90
44559;DHT22;30270;40.238;18.256;2022-10-14T00:54:38;18.40;99.90
44559;DHT22;30270;40.238;18.256;2022-10-14T00:57:08;18.40;99.90
44559;DHT22;30270;40.238;18.256;2022-10-14T00:59:36;18.40;99.90
44559;DHT22;30270;40.238;18.256;2022-10-14T01:02:04;18.40;99.90
44559;DHT22;30270;40.238;18.256;2022-10-14T01:04:34;18.40;99.90
44559;DHT22;30270;40.238;18.256;2022-10-14T01:21:09;18.40;99.90
44559;DHT22;30270;40.238;18.256;2022-10-14T01:31:31;18.40;99.90
44559;DHT22;30270;40.238;18.256;2022-10-14T01:34:03;18.40;99.90
44559;DHT22;30270;40.238;18.256;2022-10-14T01:36:43;18.40;99.90
44559;DHT22;30270;40.238;18.256;2022-10-14T01:39:24;18.40;99.90
44559;DHT22;30270;40.238;18.256;2022-10-14T01:42:10;18.40;99.90
44559;DHT22;30270;40.238;18.256;2022-10-14T01:44:42;18.30;99.90
44559;DHT22;30270;40.238;18.256;2022-10-14T01:47:13;18.30;99.90
44559;DHT22;30270;40.238;18.256;2022-10-14T01:49:46;18.30;99.90
44559;DHT22;30270;40.238;18.256;2022-10-14T01:52:19;18.30;99.90
44559;DHT22;30270;40.238;18.256;2022-10-14T01:54:52;18.30;99.90
44559;DHT22;30270;40.238;18.256;2022-10-14T01:57:28;18.30;99.90
44559;DHT22;30270;40.238;18.256;2022-10-14T01:59:58;18.30;99.90
44559;DHT22;30270;40.238;18.256;2022-10-14T02:02:26;18.40;99.90
44559;DHT22;30270;40.238;18.256;2022-10-14T02:04:57;18.30;99.90
44559;DHT22;30270;40.238;18.256;2022-10-14T02:07:32;18.30;99.90
44559;DHT22;30270;40.238;18.256;2022-10-14T02:15:32;18.30;99.90
44559;DHT22;30270;40.238;18.256;2022-10-14T02:20:59;18.30;99.90
44559;DHT22;30270;40.238;18.256;2022-10-14T02:23:49;18.30;99.90
44559;DHT22;30270;40.238;18.256;2022-10-14T02:26:18;18.30;99.90
44559;DHT22;30270;40.238;18.256;2022-10-14T02:28:48;18.30;99.90
44559;DHT22;30270;40.238;18.256;2022-10-14T02:31:17;18.30;99.90
44559;DHT22;30270;40.238;18.256;2022-10-14T02:33:50;18.30;99.90
44559;DHT22;30270;40.238;18.256;2022-10-14T02:36:22;18.30;99.90
44559;DHT22;30270;40.238;18.256;2022-10-14T02:38:53;18.40;99.90
44559;DHT22;30270;40.238;18.256;2022-10-14T02:41:29;18.40;99.90
44559;DHT22;30270;40.238;18.256;2022-10-14T02:43:59;18.40;99.90
44559;DHT22;30270;40.238;18.256;2022-10-14T02:46:27;18.40;99.90
44559;DHT22;30270;40.238;18.256;2022-10-14T02:48:55;18.40;99.90
44559;DHT22;30270;40.238;18.256;2022-10-14T02:51:23;18.40;99.90
44559;DHT22;30270;40.238;18.256;2022-10-14T02:53:51;18.40;99.90
44559;DHT22;30270;40.238;18.256;2022-10-14T02:56:19;18.40;99.90
44559;DHT22;30270;40.238;18.256;2022-10-14T02:58:46;18.40;99.90
44559;DHT22;30270;40.238;18.256;2022-10-14T03:01:15;18.40;99.90
44559;DHT22;30270;40.238;18.256;2022-10-14T03:03:43;18.40;99.90
44559;DHT22;30270;40.238;18.256;2022-10-14T03:06:12;18.40;99.90
44559;DHT22;30270;40.238;18.256;2022-10-14T03:08:40;18.40;99.90
44559;DHT22;30270;40.238;18.256;2022-10-14T03:11:08;18.40;99.90
44559;DHT22;30270;40.238;18.256;2022-10-14T03:13:37;18.40;99.90
44559;DHT22;30270;40.238;18.256;2022-10-14T03:16:05;18.40;99.90
44559;DHT22;30270;40.238;18.256;2022-10-14T03:18:38;18.40;99.90
44559;DHT22;30270;40.238;18.256;2022-10-14T03:21:16;18.30;99.90
44559;DHT22;30270;40.238;18.256;2022-10-14T03:23:45;18.20;99.90
44559;DHT22;30270;40.238;18.256;2022-10-14T03:26:12;18.30;99.90
44559;DHT22;30270;40.238;18.256;2022-10-14T03:28:46;18.30;99.90
44559;DHT22;30270;40.238;18.256;2022-10-14T03:31:22;18.30;99.90
44559;DHT22;30270;40.238;18.256;2022-10-14T03:34:12;18.30;99.90
44559;DHT22;30270;40.238;18.256;2022-10-14T03:36:41;18.20;99.90
44559;DHT22;30270;40.238;18.256;2022-10-14T03:39:10;18.30;99.90
44559;DHT22;30270;40.238;18.256;2022-10-14T03:41:48;18.20;99.90
44559;DHT22;30270;40.238;18.256;2022-10-14T03:44:21;18.20;99.90
44559;DHT22;30270;40.238;18.256;2022-10-14T03:47:11;18.20;99.90
44559;DHT22;30270;40.238;18.256;2022-10-14T03:49:39;18.20;99.90
44559;DHT22;30270;40.238;18.256;2022-10-14T03:52:14;18.20;99.90
44559;DHT22;30270;40.238;18.256;2022-10-14T03:54:43;18.10;99.90
44559;DHT22;30270;40.238;18.256;2022-10-14T03:57:14;18.10;99.90
44559;DHT22;30270;40.238;18.256;2022-10-14T03:59:49;18.10;99.90
44559;DHT22;30270;40.238;18.256;2022-10-14T04:02:18;18.10;99.90
44559;DHT22;30270;40.238;18.256;2022-10-14T04:04:46;18.10;99.90
44559;DHT22;30270;40.238;18.256;2022-10-14T04:07:16;18.00;99.90
44559;DHT22;30270;40.238;18.256;2022-10-14T04:09:51;18.00;99.90
44559;DHT22;30270;40.238;18.256;2022-10-14T04:12:19;18.00;99.90
44559;DHT22;30270;40.238;18.256;2022-10-14T04:14:57;17.90;99.90
44559;DHT22;30270;40.238;18.256;2022-10-14T04:17:29;17.90;99.90
44559;DHT22;30270;40.238;18.256;2022-10-14T04:20:00;17.90;99.90
44559;DHT22;30270;40.238;18.256;2022-10-14T04:22:28;17.90;99.90
44559;DHT22;30270;40.238;18.256;2022-10-14T04:24:56;17.90;99.90
44559;DHT22;30270;40.238;18.256;2022-10-14T04:27:24;17.90;99.90
44559;DHT22;30270;40.238;18.256;2022-10-14T04:30:04;17.90;99.90
44559;DHT22;30270;40.238;18.256;2022-10-14T04:32:43;17.90;99.90
44559;DHT22;30270;40.238;18.256;2022-10-14T04:35:11;17.90;99.90
44559;DHT22;30270;40.238;18.256;2022-10-14T04:37:43;17.90;99.90
44559;DHT22;30270;40.238;18.256;2022-10-14T04:40:21;17.90;99.90
44559;DHT22;30270;40.238;18.256;2022-10-14T04:42:57;17.90;99.90
44559;DHT22;30270;40.238;18.256;2022-10-14T04:45:36;17.90;99.90
44559;DHT22;30270;40.238;18.256;2022-10-14T04:48:04;18.00;99.90
44559;DHT22;30270;40.238;18.256;2022-10-14T04:50:37;17.90;99.90
44559;DHT22;30270;40.238;18.256;2022-10-14T04:53:23;18.00;99.90
44559;DHT22;30270;40.238;18.256;2022-10-14T04:56:03;17.90;99.90
44559;DHT22;30270;40.238;18.256;2022-10-14T04:58:34;18.00;99.90
44559;DHT22;30270;40.238;18.256;2022-10-14T05:01:02;18.00;99.90
44559;DHT22;30270;40.238;18.256;2022-10-14T05:03:35;18.00;99.90
44559;DHT22;30270;40.238;18.256;2022-10-14T05:06:03;18.00;99.90
44559;DHT22;30270;40.238;18.256;2022-10-14T05:08:33;18.00;99.90
44559;DHT22;30270;40.238;18.256;2022-10-14T05:11:00;18.00;99.90
44559;DHT22;30270;40.238;18.256;2022-10-14T05:13:41;18.00;99.90
44559;DHT22;30270;40.238;18.256;2022-10-14T05:16:09;17.90;99.90
44559;DHT22;30270;40.238;18.256;2022-10-14T05:18:38;18.00;99.90
44559;DHT22;30270;40.238;18.256;2022-10-14T05:21:11;17.90;99.90
44559;DHT22;30270;40.238;18.256;2022-10-14T05:23:59;17.90;99.90
44559;DHT22;30270;40.238;18.256;2022-10-14T05:26:29;17.90;99.90
44559;DHT22;30270;40.238;18.256;2022-10-14T05:29:01;18.00;99.90
44559;DHT22;30270;40.238;18.256;2022-10-14T05:31:29;17.90;99.90
44559;DHT22;30270;40.238;18.256;2022-10-14T05:34:07;18.00;99.90
44559;DHT22;30270;40.238;18.256;2022-10-14T05:36:35;18.00;99.90
44559;DHT22;30270;40.238;18.256;2022-10-14T05:39:08;18.00;99.90
44559;DHT22;30270;40.238;18.256;2022-10-14T05:41:37;18.00;99.90
44559;DHT22;30270;40.238;18.256;2022-10-14T05:44:10;18.00;99.90
44559;DHT22;30270;40.238;18.256;2022-10-14T05:46:38;18.00;99.90
44559;DHT22;30270;40.238;18.256;2022-10-14T05:49:08;18.00;99.90
44559;DHT22;30270;40.238;18.256;2022-10-14T05:51:37;18.00;99.90
44559;DHT22;30270;40.238;18.256;2022-10-14T05:54:15;18.00;99.90
44559;DHT22;30270;40.238;18.256;2022-10-14T05:56:43;18.00;99.90
44559;DHT22;30270;40.238;18.256;2022-10-14T05:59:12;18.00;99.90
44559;DHT22;30270;40.238;18.256;2022-10-14T06:01:40;18.10;99.90
44559;DHT22;30270;40.238;18.256;2022-10-14T06:04:16;18.10;99.90
44559;DHT22;30270;40.238;18.256;2022-10-14T06:06:45;18.10;99.90
44559;DHT22;30270;40.238;18.256;2022-10-14T06:09:15;18.10;99.90
44559;DHT22;30270;40.238;18.256;2022-10-14T06:11:43;18.20;99.90
44559;DHT22;30270;40.238;18.256;2022-10-14T06:14:11;18.40;99.90
44559;DHT22;30270;40.238;18.256;2022-10-14T06:16:40;18.60;99.90
44559;DHT22;30270;40.238;18.256;2022-10-14T06:19:07;18.70;99.90
44559;DHT22;30270;40.238;18.256;2022-10-14T06:21:36;18.90;99.90
44559;DHT22;30270;40.238;18.256;2022-10-14T06:24:05;19.10;99.90
44559;DHT22;30270;40.238;18.256;2022-10-14T06:26:33;19.30;99.90
44559;DHT22;30270;40.238;18.256;2022-10-14T06:29:01;19.40;99.90
44559;DHT22;30270;40.238;18.256;2022-10-14T06:31:30;19.40;99.90
44559;DHT22;30270;40.238;18.256;2022-10-14T06:33:58;19.50;99.90
44559;DHT22;30270;40.238;18.256;2022-10-14T06:36:27;19.60;99.90
44559;DHT22;30270;40.238;18.256;2022-10-14T06:38:55;19.70;99.90
44559;DHT22;30270;40.238;18.256;2022-10-14T06:41:23;19.70;99.90
44559;DHT22;30270;40.238;18.256;2022-10-14T06:43:50;19.70;99.90
44559;DHT22;30270;40.238;18.256;2022-10-14T06:46:18;19.60;99.90
44559;DHT22;30270;40.238;18.256;2022-10-14T06:48:46;19.60;99.90
44559;DHT22;30270;40.238;18.256;2022-10-14T06:51:16;19.50;99.90
44559;DHT22;30270;40.238;18.256;2022-10-14T06:53:44;19.50;99.90
44559;DHT22;30270;40.238;18.256;2022-10-14T06:56:12;19.50;99.90
44559;DHT22;30270;40.238;18.256;2022-10-14T06:58:39;19.40;99.90
44559;DHT22;30270;40.238;18.256;2022-10-14T07:01:08;19.40;99.90
44559;DHT22;30270;40.238;18.256;2022-10-14T07:03:36;19.40;99.90
44559;DHT22;30270;40.238;18.256;2022-10-14T07:06:06;19.40;99.90
44559;DHT22;30270;40.238;18.256;2022-10-14T07:08:34;19.40;99.90
44559;DHT22;30270;40.238;18.256;2022-10-14T07:11:03;19.40;99.90
44559;DHT22;30270;40.238;18.256;2022-10-14T07:13:32;19.40;99.90
44559;DHT22;30270;40.238;18.256;2022-10-14T07:16:01;19.50;99.90
44559;DHT22;30270;40.238;18.256;2022-10-14T07:18:29;19.40;99.90
44559;DHT22;30270;40.238;18.256;2022-10-14T07:21:01;19.40;99.90
44559;DHT22;30270;40.238;18.256;2022-10-14T07:23:30;19.50;99.90
44559;DHT22;30270;40.238;18.256;2022-10-14T07:26:01;19.40;99.90
44559;DHT22;30270;40.238;18.256;2022-10-14T07:28:29;19.40;99.90
44559;DHT22;30270;40.238;18.256;2022-10-14T07:31:03;19.40;99.90
44559;DHT22;30270;40.238;18.256;2022-10-14T07:33:31;19.20;99.90
44559;DHT22;30270;40.238;18.256;2022-10-14T07:36:02;19.00;99.90
44559;DHT22;30270;40.238;18.256;2022-10-14T07:38:31;19.00;99.90
44559;DHT22;30270;40.238;18.256;2022-10-14T07:41:04;19.00;99.90
44559;DHT22;30270;40.238;18.256;2022-10-14T07:43:33;18.90;99.90
44559;DHT22;30270;40.238;18.256;2022-10-14T07:46:03;19.00;99.90
44559;DHT22;30270;40.238;18.256;2022-10-14T07:48:32;18.90;99.90
44559;DHT22;30270;40.238;18.256;2022-10-14T07:51:11;19.00;99.90
44559;DHT22;30270;40.238;18.256;2022-10-14T07:53:39;18.90;99.90
44559;DHT22;30270;40.238;18.256;2022-10-14T07:56:06;19.00;99.90
44559;DHT22;30270;40.238;18.256;2022-10-14T07:58:34;19.00;99.90
44559;DHT22;30270;40.238;18.256;2022-10-14T08:01:04;19.00;99.90
44559;DHT22;30270;40.238;18.256;2022-10-14T08:03:32;18.90;99.90
44559;DHT22;30270;40.238;18.256;2022-10-14T08:06:01;18.90;99.90
44559;DHT22;30270;40.238;18.256;2022-10-14T08:08:31;18.90;99.90
44559;DHT22;30270;40.238;18.256;2022-10-14T08:11:27;18.90;99.90
44559;DHT22;30270;40.238;18.256;2022-10-14T08:13:57;18.90;99.90
44559;DHT22;30270;40.238;18.256;2022-10-14T08:16:28;18.90;99.90
44559;DHT22;30270;40.238;18.256;2022-10-14T08:18:58;19.00;99.90
44559;DHT22;30270;40.238;18.256;2022-10-14T08:21:26;18.90;99.90
44559;DHT22;30270;40.238;18.256;2022-10-14T08:23:55;19.00;99.90
44559;DHT22;30270;40.238;18.256;2022-10-14T08:28:56;19.10;99.90
44559;DHT22;30270;40.238;18.256;2022-10-14T08:31:24;19.30;99.90
44559;DHT22;30270;40.238;18.256;2022-10-14T08:33:52;19.40;99.90
44559;DHT22;30270;40.238;18.256;2022-10-14T08:36:20;19.60;99.90
44559;DHT22;30270;40.238;18.256;2022-10-14T08:38:49;19.60;99.90
44559;DHT22;30270;40.238;18.256;2022-10-14T08:47:04;20.00;99.90
44559;DHT22;30270;40.238;18.256;2022-10-14T08:53:01;20.10;99.90
44559;DHT22;30270;40.238;18.256;2022-10-14T08:55:40;20.10;99.90
44559;DHT22;30270;40.238;18.256;2022-10-14T08:58:20;20.10;99.90
44559;DHT22;30270;40.238;18.256;2022-10-14T09:00:51;20.10;99.90
44559;DHT22;30270;40.238;18.256;2022-10-14T09:03:28;20.20;99.90
44559;DHT22;30270;40.238;18.256;2022-10-14T09:06:11;20.50;99.90
44559;DHT22;30270;40.238;18.256;2022-10-14T09:08:46;20.90;99.90
44559;DHT22;30270;40.238;18.256;2022-10-14T09:11:20;21.10;99.90
44559;DHT22;30270;40.238;18.256;2022-10-14T09:13:50;21.30;99.90
44559;DHT22;30270;40.238;18.256;2022-10-14T09:16:20;21.50;99.90
44559;DHT22;30270;40.238;18.256;2022-10-14T09:18:55;21.70;99.90
44559;DHT22;30270;40.238;18.256;2022-10-14T09:21:42;21.70;99.90
44559;DHT22;30270;40.238;18.256;2022-10-14T09:24:35;21.90;99.90
44559;DHT22;30270;40.238;18.256;2022-10-14T09:27:06;22.00;99.90
44559;DHT22;30270;40.238;18.256;2022-10-14T09:32:28;22.10;99.90
44559;DHT22;30270;40.238;18.256;2022-10-14T09:34:58;22.00;99.90
44559;DHT22;30270;40.238;18.256;2022-10-14T09:37:34;21.80;99.90
44559;DHT22;30270;40.238;18.256;2022-10-14T09:45:57;21.30;99.90
44559;DHT22;30270;40.238;18.256;2022-10-14T09:51:03;21.50;99.90
44559;DHT22;30270;40.238;18.256;2022-10-14T09:53:39;21.50;99.90
44559;DHT22;30270;40.238;18.256;2022-10-14T09:56:12;21.40;99.90
44559;DHT22;30270;40.238;18.256;2022-10-14T09:58:50;21.30;99.90
44559;DHT22;30270;40.238;18.256;2022-10-14T10:01:35;21.10;99.90
44559;DHT22;30270;40.238;18.256;2022-10-14T10:07:01;20.80;99.90
44559;DHT22;30270;40.238;18.256;2022-10-14T10:09:32;20.70;99.90
44559;DHT22;30270;40.238;18.256;2022-10-14T10:12:21;20.60;99.90
44559;DHT22;30270;40.238;18.256;2022-10-14T10:14:58;20.50;99.90
44559;DHT22;30270;40.238;18.256;2022-10-14T10:17:26;20.50;99.90
44559;DHT22;30270;40.238;18.256;2022-10-14T10:20:29;20.50;99.90
44559;DHT22;30270;40.238;18.256;2022-10-14T10:23:22;20.60;99.90
44559;DHT22;30270;40.238;18.256;2022-10-14T10:25:55;20.60;99.90
44559;DHT22;30270;40.238;18.256;2022-10-14T10:28:45;20.70;99.90
44559;DHT22;30270;40.238;18.256;2022-10-14T10:31:28;20.70;99.90
44559;DHT22;30270;40.238;18.256;2022-10-14T10:36:34;21.00;99.90
44559;DHT22;30270;40.238;18.256;2022-10-14T10:39:26;21.00;99.90
44559;DHT22;30270;40.238;18.256;2022-10-14T10:47:41;20.90;99.90
44559;DHT22;30270;40.238;18.256;2022-10-14T10:55:57;20.80;99.90
44559;DHT22;30270;40.238;18.256;2022-10-14T11:01:34;20.80;99.90
44559;DHT22;30270;40.238;18.256;2022-10-14T11:04:27;20.70;99.90
44559;DHT22;30270;40.238;18.256;2022-10-14T11:07:09;20.60;99.90
44559;DHT22;30270;40.238;18.256;2022-10-14T11:10:23;20.60;99.90
44559;DHT22;30270;40.238;18.256;2022-10-14T11:24:56;20.40;99.90
44559;DHT22;30270;40.238;18.256;2022-10-14T11:28:07;20.40;99.90
44559;DHT22;30270;40.238;18.256;2022-10-14T11:30:39;20.50;99.90
44559;DHT22;30270;40.238;18.256;2022-10-14T11:38:59;20.50;99.90
44559;DHT22;30270;40.238;18.256;2022-10-14T11:44:10;20.40;99.90
44559;DHT22;30270;40.238;18.256;2022-10-14T11:46:45;20.40;99.90
44559;DHT22;30270;40.238;18.256;2022-10-14T11:49:27;20.30;99.90
44559;DHT22;30270;40.238;18.256;2022-10-14T11:52:06;20.30;99.90
44559;DHT22;30270;40.238;18.256;2022-10-14T11:57:44;20.30;99.90
44559;DHT22;30270;40.238;18.256;2022-10-14T12:03:09;20.30;99.90
44559;DHT22;30270;40.238;18.256;2022-10-14T12:05:58;20.30;99.90
44559;DHT22;30270;40.238;18.256;2022-10-14T12:16:46;20.30;99.90
44559;DHT22;30270;40.238;18.256;2022-10-14T12:19:26;20.40;99.90
44559;DHT22;30270;40.238;18.256;2022-10-14T12:25:02;20.60;99.90
44559;DHT22;30270;40.238;18.256;2022-10-14T12:27:32;20.70;99.90
44559;DHT22;30270;40.238;18.256;2022-10-14T12:30:00;20.70;99.90
44559;DHT22;30270;40.238;18.256;2022-10-14T12:32:30;20.70;99.90
44559;DHT22;30270;40.238;18.256;2022-10-14T12:35:00;20.70;99.90
44559;DHT22;30270;40.238;18.256;2022-10-14T12:45:24;20.40;99.90
44559;DHT22;30270;40.238;18.256;2022-10-14T12:48:06;20.30;99.90
44559;DHT22;30270;40.238;18.256;2022-10-14T12:50:41;20.30;99.90
44559;DHT22;30270;40.238;18.256;2022-10-14T12:53:28;20.30;99.90
44559;DHT22;30270;40.238;18.256;2022-10-14T12:56:01;20.10;99.90
44559;DHT22;30270;40.238;18.256;2022-10-14T12:58:41;20.10;99.90
44559;DHT22;30270;40.238;18.256;2022-10-14T13:01:20;20.10;99.90
44559;DHT22;30270;40.238;18.256;2022-10-14T13:04:01;20.00;99.90
44559;DHT22;30270;40.238;18.256;2022-10-14T13:09:30;19.90;99.90
44559;DHT22;30270;40.238;18.256;2022-10-14T13:14:56;19.90;99.90
44559;DHT22;30270;40.238;18.256;2022-10-14T13:17:46;19.80;99.90
44559;DHT22;30270;40.238;18.256;2022-10-14T13:23:36;19.70;99.90
44559;DHT22;30270;40.238;18.256;2022-10-14T13:34:25;19.90;99.90
44559;DHT22;30270;40.238;18.256;2022-10-14T13:39:41;20.00;99.90
44559;DHT22;30270;40.238;18.256;2022-10-14T13:42:24;20.00;99.90
44559;DHT22;30270;40.238;18.256;2022-10-14T13:45:02;20.00;99.90
44559;DHT22;30270;40.238;18.256;2022-10-14T13:47:33;20.00;99.90
44559;DHT22;30270;40.238;18.256;2022-10-14T13:50:02;20.00;99.90
44559;DHT22;30270;40.238;18.256;2022-10-14T13:52:32;19.90;99.90
44559;DHT22;30270;40.238;18.256;2022-10-14T13:55:16;19.90;99.90
44559;DHT22;30270;40.238;18.256;2022-10-14T14:03:34;19.70;99.90
44559;DHT22;30270;40.238;18.256;2022-10-14T14:06:12;19.70;99.90
44559;DHT22;30270;40.238;18.256;2022-10-14T14:08:58;19.70;99.90
44559;DHT22;30270;40.238;18.256;2022-10-14T14:11:31;19.70;99.90
44559;DHT22;30270;40.238;18.256;2022-10-14T14:14:06;19.70;99.90
44559;DHT22;30270;40.238;18.256;2022-10-14T14:16:39;19.70;99.90
44559;DHT22;30270;40.238;18.256;2022-10-14T14:19:18;19.70;99.90
44559;DHT22;30270;40.238;18.256;2022-10-14T14:21:48;19.60;99.90
44559;DHT22;30270;40.238;18.256;2022-10-14T14:24:21;19.70;99.90
44559;DHT22;30270;40.238;18.256;2022-10-14T14:26:54;19.70;99.90
44559;DHT22;30270;40.238;18.256;2022-10-14T14:29:28;19.60;99.90
44559;DHT22;30270;40.238;18.256;2022-10-14T14:31:58;19.60;99.90
44559;DHT22;30270;40.238;18.256;2022-10-14T14:34:35;19.70;99.90
44559;DHT22;30270;40.238;18.256;2022-10-14T14:37:04;19.70;99.90
44559;DHT22;30270;40.238;18.256;2022-10-14T14:39:54;19.70;99.90
44559;DHT22;30270;40.238;18.256;2022-10-14T14:42:27;19.60;99.90
44559;DHT22;30270;40.238;18.256;2022-10-14T14:45:10;19.60;99.90
44559;DHT22;30270;40.238;18.256;2022-10-14T14:47:40;19.60;99.90
44559;DHT22;30270;40.238;18.256;2022-10-14T14:50:16;19.60;99.90
44559;DHT22;30270;40.238;18.256;2022-10-14T14:53:00;19.60;99.90
44559;DHT22;30270;40.238;18.256;2022-10-14T15:00:53;19.60;99.90
44559;DHT22;30270;40.238;18.256;2022-10-14T15:03:26;19.60;99.90
44559;DHT22;30270;40.238;18.256;2022-10-14T15:05:58;19.60;99.90
44559;DHT22;30270;40.238;18.256;2022-10-14T15:08:31;19.60;99.90
44559;DHT22;30270;40.238;18.256;2022-10-14T15:11:00;19.60;99.90
44559;DHT22;30270;40.238;18.256;2022-10-14T15:13:44;19.60;99.90
44559;DHT22;30270;40.238;18.256;2022-10-14T15:16:37;19.60;99.90
44559;DHT22;30270;40.238;18.256;2022-10-14T15:19:33;19.60;99.90
44559;DHT22;30270;40.238;18.256;2022-10-14T15:22:20;19.70;99.90
44559;DHT22;30270;40.238;18.256;2022-10-14T15:25:11;19.60;99.90
44559;DHT22;30270;40.238;18.256;2022-10-14T15:27:53;19.60;99.90
44559;DHT22;30270;40.238;18.256;2022-10-14T15:30:32;19.60;99.90
44559;DHT22;30270;40.238;18.256;2022-10-14T15:33:14;19.60;99.90
44559;DHT22;30270;40.238;18.256;2022-10-14T15:35:44;19.60;99.90
44559;DHT22;30270;40.238;18.256;2022-10-14T15:38:14;19.60;99.90
44559;DHT22;30270;40.238;18.256;2022-10-14T15:40:43;19.50;99.90
44559;DHT22;30270;40.238;18.256;2022-10-14T15:43:14;19.50;99.90
44559;DHT22;30270;40.238;18.256;2022-10-14T15:45:43;19.50;99.90
44559;DHT22;30270;40.238;18.256;2022-10-14T15:48:18;19.40;99.90
44559;DHT22;30270;40.238;18.256;2022-10-14T15:50:46;19.40;99.90
44559;DHT22;30270;40.238;18.256;2022-10-14T15:53:16;19.40;99.90
44559;DHT22;30270;40.238;18.256;2022-10-14T15:55:44;19.30;99.90
44559;DHT22;30270;40.238;18.256;2022-10-14T15:58:13;19.30;99.90
44559;DHT22;30270;40.238;18.256;2022-10-14T16:00:41;19.30;99.90
44559;DHT22;30270;40.238;18.256;2022-10-14T16:03:09;19.30;99.90
44559;DHT22;30270;40.238;18.256;2022-10-14T16:05:37;19.20;99.90
44559;DHT22;30270;40.238;18.256;2022-10-14T16:08:13;19.20;99.90
44559;DHT22;30270;40.238;18.256;2022-10-14T16:10:45;19.20;99.90
44559;DHT22;30270;40.238;18.256;2022-10-14T16:13:14;19.20;99.90
44559;DHT22;30270;40.238;18.256;2022-10-14T16:18:14;19.20;99.90
44559;DHT22;30270;40.238;18.256;2022-10-14T16:20:42;19.20;99.90
44559;DHT22;30270;40.238;18.256;2022-10-14T16:23:14;19.20;99.90
44559;DHT22;30270;40.238;18.256;2022-10-14T16:25:45;19.20;99.90
44559;DHT22;30270;40.238;18.256;2022-10-14T16:28:17;19.10;99.90
44559;DHT22;30270;40.238;18.256;2022-10-14T16:30:47;19.10;99.90
44559;DHT22;30270;40.238;18.256;2022-10-14T16:33:17;19.10;99.90
44559;DHT22;30270;40.238;18.256;2022-10-14T16:35:49;19.10;99.90
44559;DHT22;30270;40.238;18.256;2022-10-14T16:38:18;19.00;99.90
44559;DHT22;30270;40.238;18.256;2022-10-14T16:40:57;19.00;99.90
44559;DHT22;30270;40.238;18.256;2022-10-14T16:43:26;19.00;99.90
44559;DHT22;30270;40.238;18.256;2022-10-14T16:45:58;19.00;99.90
44559;DHT22;30270;40.238;18.256;2022-10-14T16:48:27;19.00;99.90
44559;DHT22;30270;40.238;18.256;2022-10-14T16:50:55;19.00;99.90
44559;DHT22;30270;40.238;18.256;2022-10-14T16:53:26;19.00;99.90
44559;DHT22;30270;40.238;18.256;2022-10-14T16:56:18;19.00;99.90
44559;DHT22;30270;40.238;18.256;2022-10-14T16:59:05;19.00;99.90
44559;DHT22;30270;40.238;18.256;2022-10-14T17:01:34;19.00;99.90
44559;DHT22;30270;40.238;18.256;2022-10-14T17:04:03;19.00;99.90
44559;DHT22;30270;40.238;18.256;2022-10-14T17:06:31;19.00;99.90
44559;DHT22;30270;40.238;18.256;2022-10-14T17:08:59;19.00;99.90
44559;DHT22;30270;40.238;18.256;2022-10-14T17:11:26;19.00;99.90
44559;DHT22;30270;40.238;18.256;2022-10-14T17:13:58;18.90;99.90
44559;DHT22;30270;40.238;18.256;2022-10-14T17:16:27;18.90;99.90
44559;DHT22;30270;40.238;18.256;2022-10-14T17:18:56;18.90;99.90
44559;DHT22;30270;40.238;18.256;2022-10-14T17:21:25;18.90;99.90
44559;DHT22;30270;40.238;18.256;2022-10-14T17:23:59;18.90;99.90
44559;DHT22;30270;40.238;18.256;2022-10-14T17:26:29;18.90;99.90
44559;DHT22;30270;40.238;18.256;2022-10-14T17:28:58;18.80;99.90
44559;DHT22;30270;40.238;18.256;2022-10-14T17:31:26;18.80;99.90
44559;DHT22;30270;40.238;18.256;2022-10-14T17:33:57;18.80;99.90
44559;DHT22;30270;40.238;18.256;2022-10-14T17:36:27;18.80;99.90
44559;DHT22;30270;40.238;18.256;2022-10-14T17:38:58;18.70;99.90
44559;DHT22;30270;40.238;18.256;2022-10-14T17:41:28;18.70;99.90
44559;DHT22;30270;40.238;18.256;2022-10-14T17:43:57;18.70;99.90
44559;DHT22;30270;40.238;18.256;2022-10-14T17:46:30;18.70;99.90
44559;DHT22;30270;40.238;18.256;2022-10-14T17:49:00;18.70;99.90
44559;DHT22;30270;40.238;18.256;2022-10-14T17:51:30;18.70;99.90
44559;DHT22;30270;40.238;18.256;2022-10-14T17:54:01;18.60;99.90
44559;DHT22;30270;40.238;18.256;2022-10-14T17:56:30;18.60;99.90
44559;DHT22;30270;40.238;18.256;2022-10-14T17:59:00;18.60;99.90
44559;DHT22;30270;40.238;18.256;2022-10-14T18:01:29;18.60;99.90
44559;DHT22;30270;40.238;18.256;2022-10-14T18:03:58;18.60;99.90
44559;DHT22;30270;40.238;18.256;2022-10-14T18:06:28;18.60;99.90
44559;DHT22;30270;40.238;18.256;2022-10-14T18:08:59;18.60;99.90
44559;DHT22;30270;40.238;18.256;2022-10-14T18:11:33;18.50;99.90
44559;DHT22;30270;40.238;18.256;2022-10-14T18:14:12;18.50;99.90
44559;DHT22;30270;40.238;18.256;2022-10-14T18:16:40;18.50;99.90
44559;DHT22;30270;40.238;18.256;2022-10-14T18:19:11;18.50;99.90
44559;DHT22;30270;40.238;18.256;2022-10-14T18:21:42;18.50;99.90
44559;DHT22;30270;40.238;18.256;2022-10-14T18:24:11;18.40;99.90
44559;DHT22;30270;40.238;18.256;2022-10-14T18:26:39;18.40;99.90